createdAt,value
2022-08-27T00:02:26.576Z,19.00
2022-08-27T00:04:55.755Z,18.93
2022-08-27T00:07:24.825Z,18.97
2022-08-27T00:09:53.912Z,19.01
2022-08-27T00:12:23.170Z,19.08
2022-08-27T00:14:52.227Z,19.06
2022-08-27T00:17:21.599Z,18.96
2022-08-27T00:19:52.009Z,18.97
2022-08-27T00:22:21.475Z,19.00
2022-08-27T00:24:50.531Z,19.01
2022-08-27T00:27:19.690Z,18.91
2022-08-27T00:29:48.893Z,18.90
2022-08-27T00:32:18.534Z,18.86
2022-08-27T00:34:47.675Z,18.89
2022-08-27T00:37:18.063Z,18.76
2022-08-27T00:39:48.048Z,18.82
2022-08-27T00:42:17.665Z,18.80
2022-08-27T00:44:47.201Z,18.84
2022-08-27T00:47:27.762Z,18.76
2022-08-27T00:50:02.261Z,18.66
2022-08-27T00:52:35.585Z,18.69
2022-08-27T00:55:08.312Z,18.68
2022-08-27T00:57:39.874Z,18.74
2022-08-27T01:00:14.711Z,18.70
2022-08-27T01:02:46.545Z,18.77
2022-08-27T01:05:20.489Z,18.74
2022-08-27T01:07:54.943Z,18.67
2022-08-27T01:10:29.517Z,18.64
2022-08-27T01:12:59.112Z,18.62
2022-08-27T01:15:31.109Z,18.57
2022-08-27T01:18:00.793Z,18.57
2022-08-27T01:20:33.362Z,18.63
2022-08-27T01:23:12.060Z,18.60
2022-08-27T01:25:45.218Z,18.64
2022-08-27T01:28:16.432Z,18.55
2022-08-27T01:30:45.829Z,18.55
2022-08-27T01:33:18.787Z,18.61
2022-08-27T01:35:50.800Z,18.68
2022-08-27T01:38:31.003Z,18.69
2022-08-27T01:41:02.461Z,18.59
2022-08-27T01:43:32.311Z,18.57
2022-08-27T01:46:01.414Z,18.54
2022-08-27T01:48:30.684Z,18.57
2022-08-27T01:50:59.750Z,18.58
2022-08-27T01:53:29.279Z,18.56
2022-08-27T01:55:59.210Z,18.53
2022-08-27T01:58:31.320Z,18.61
2022-08-27T02:01:03.671Z,18.54
2022-08-27T02:03:36.509Z,18.56
2022-08-27T02:06:07.997Z,18.53
2022-08-27T02:08:37.395Z,18.44
2022-08-27T02:11:08.364Z,18.54
2022-08-27T02:13:39.261Z,18.49
2022-08-27T02:16:09.049Z,18.41
2022-08-27T02:18:38.558Z,18.48
2022-08-27T02:21:11.012Z,18.43
2022-08-27T02:23:42.014Z,18.37
2022-08-27T02:26:11.125Z,18.44
2022-08-27T02:28:41.641Z,18.41
2022-08-27T02:31:11.148Z,18.40
2022-08-27T02:33:40.318Z,18.38
2022-08-27T02:36:10.184Z,18.34
2022-08-27T02:38:39.238Z,18.32
2022-08-27T02:41:08.733Z,18.36
2022-08-27T02:43:37.928Z,18.38
2022-08-27T02:46:08.624Z,18.36
2022-08-27T02:48:38.496Z,18.33
2022-08-27T02:51:08.551Z,18.31
2022-08-27T02:53:38.742Z,18.34
2022-08-27T02:56:09.900Z,18.40
2022-08-27T02:58:39.045Z,18.26
2022-08-27T03:01:11.302Z,18.27
2022-08-27T03:03:43.659Z,18.28
2022-08-27T03:06:12.998Z,18.22
2022-08-27T03:08:52.978Z,18.27
2022-08-27T03:11:23.593Z,18.21
2022-08-27T03:13:53.731Z,18.17
2022-08-27T03:16:24.316Z,18.28
2022-08-27T03:18:52.832Z,18.30
2022-08-27T03:21:24.212Z,18.23
2022-08-27T03:23:54.283Z,18.12
2022-08-27T03:26:23.750Z,18.22
2022-08-27T03:28:52.784Z,18.10
2022-08-27T03:31:27.648Z,18.07
2022-08-27T03:33:58.959Z,18.10
2022-08-27T03:36:29.728Z,18.13
2022-08-27T03:38:59.518Z,18.16
2022-08-27T03:41:54.247Z,18.13
2022-08-27T03:44:21.343Z,18.14
2022-08-27T03:46:52.642Z,18.11
2022-08-27T03:49:23.126Z,18.20
2022-08-27T03:51:54.086Z,18.15
2022-08-27T03:54:23.359Z,18.06
2022-08-27T03:56:53.042Z,18.14
2022-08-27T03:59:22.158Z,18.14
2022-08-27T04:01:52.645Z,18.21
2022-08-27T04:04:23.699Z,18.21
2022-08-27T04:06:53.615Z,18.17
2022-08-27T04:09:25.132Z,18.17
2022-08-27T04:11:54.526Z,18.13
2022-08-27T04:14:26.848Z,18.06
2022-08-27T04:16:58.530Z,18.08
2022-08-27T04:19:30.347Z,18.06
2022-08-27T04:22:05.840Z,18.09
2022-08-27T04:24:36.639Z,18.06
2022-08-27T04:27:07.121Z,18.03
2022-08-27T04:29:36.704Z,17.97
2022-08-27T04:32:07.725Z,18.00
2022-08-27T04:34:36.955Z,18.05
2022-08-27T04:37:06.464Z,18.01
2022-08-27T04:39:35.739Z,18.01
2022-08-27T04:42:05.104Z,18.11
2022-08-27T04:44:35.200Z,18.01
2022-08-27T04:47:07.143Z,18.02
2022-08-27T04:49:36.884Z,18.01
2022-08-27T04:52:06.187Z,17.98
2022-08-27T04:54:36.308Z,18.02
2022-08-27T04:57:07.355Z,18.02
2022-08-27T04:59:38.928Z,18.07
2022-08-27T05:02:10.892Z,18.05
2022-08-27T05:04:42.004Z,17.99
2022-08-27T05:07:11.700Z,17.83
2022-08-27T05:09:41.564Z,17.86
2022-08-27T05:12:11.047Z,17.75
2022-08-27T05:14:40.479Z,17.86
2022-08-27T05:17:10.943Z,17.91
2022-08-27T05:19:40.044Z,17.80
2022-08-27T05:22:09.059Z,17.82
2022-08-27T05:24:38.831Z,17.80
2022-08-27T05:27:07.972Z,17.79
2022-08-27T05:29:40.703Z,17.80
2022-08-27T05:32:11.162Z,17.84
2022-08-27T05:34:40.195Z,17.75
2022-08-27T05:37:09.403Z,17.73
2022-08-27T05:39:38.502Z,17.69
2022-08-27T05:42:07.814Z,17.56
2022-08-27T05:44:41.090Z,17.60
2022-08-27T05:47:12.371Z,17.67
2022-08-27T05:49:41.544Z,17.61
2022-08-27T05:52:11.878Z,17.48
2022-08-27T05:54:41.179Z,17.49
2022-08-27T05:57:10.612Z,17.55
2022-08-27T05:59:57.525Z,17.48
2022-08-27T06:02:28.430Z,17.44
2022-08-27T06:04:57.907Z,17.47
2022-08-27T06:07:26.999Z,17.54
2022-08-27T06:09:57.978Z,17.46
2022-08-27T06:12:29.579Z,17.53
2022-08-27T06:14:58.625Z,17.57
2022-08-27T06:17:30.130Z,17.58
2022-08-27T06:19:59.649Z,17.60
2022-08-27T06:22:29.920Z,17.69
2022-08-27T06:24:59.027Z,17.70
2022-08-27T06:27:28.113Z,17.52
2022-08-27T06:29:57.204Z,17.59
2022-08-27T06:32:26.601Z,17.59
2022-08-27T06:34:57.095Z,17.66
2022-08-27T06:37:27.313Z,17.69
2022-08-27T06:39:56.386Z,17.68
2022-08-27T06:42:25.723Z,17.67
2022-08-27T06:44:55.481Z,17.68
2022-08-27T06:47:24.721Z,17.70
2022-08-27T06:49:53.883Z,17.69
2022-08-27T06:52:24.399Z,17.65
2022-08-27T06:54:54.054Z,17.68
2022-08-27T06:57:24.450Z,17.72
2022-08-27T06:59:53.576Z,17.77
2022-08-27T07:02:22.938Z,17.79
2022-08-27T07:04:54.744Z,17.75
2022-08-27T07:07:35.540Z,17.56
2022-08-27T07:10:08.531Z,17.49
2022-08-27T07:12:37.775Z,17.42
2022-08-27T07:15:07.753Z,17.53
2022-08-27T07:17:36.834Z,17.41
2022-08-27T07:20:08.064Z,17.40
2022-08-27T07:22:40.503Z,17.37
2022-08-27T07:25:14.883Z,17.54
2022-08-27T07:27:45.737Z,17.46
2022-08-27T07:30:16.405Z,17.40
2022-08-27T07:32:46.579Z,17.41
2022-08-27T07:35:16.065Z,17.32
2022-08-27T07:37:46.623Z,17.26
2022-08-27T07:40:17.659Z,17.22
2022-08-27T07:43:04.335Z,17.32
2022-08-27T07:45:33.536Z,17.38
2022-08-27T07:48:02.796Z,17.62
2022-08-27T07:50:34.584Z,17.49
2022-08-27T07:53:05.017Z,17.47
2022-08-27T07:55:36.313Z,17.58
2022-08-27T07:58:06.024Z,17.51
2022-08-27T08:00:43.525Z,17.54
2022-08-27T08:03:13.258Z,17.31
2022-08-27T08:05:44.065Z,17.19
2022-08-27T08:08:14.465Z,17.31
2022-08-27T08:10:43.619Z,17.36
2022-08-27T08:13:12.751Z,17.52
2022-08-27T08:15:44.589Z,17.68
2022-08-27T08:18:14.409Z,17.61
2022-08-27T08:20:57.540Z,17.53
2022-08-27T08:23:29.175Z,17.58
2022-08-27T08:25:58.520Z,17.68
2022-08-27T08:28:29.126Z,17.76
2022-08-27T08:30:59.307Z,17.60
2022-08-27T08:33:28.686Z,17.79
2022-08-27T08:36:06.850Z,17.96
2022-08-27T08:38:38.196Z,18.11
2022-08-27T08:41:20.612Z,17.98
2022-08-27T08:43:51.695Z,18.04
2022-08-27T08:46:28.483Z,18.06
2022-08-27T08:49:03.920Z,18.00
2022-08-27T08:51:38.538Z,18.25
2022-08-27T08:54:15.301Z,18.21
2022-08-27T08:56:55.234Z,18.29
2022-08-27T08:59:31.485Z,18.51
2022-08-27T09:02:02.593Z,18.45
2022-08-27T09:04:33.118Z,18.35
2022-08-27T09:07:09.249Z,18.23
2022-08-27T09:09:49.254Z,18.27
2022-08-27T09:12:25.113Z,18.42
2022-08-27T09:14:59.687Z,18.41
2022-08-27T09:17:31.331Z,18.39
2022-08-27T09:20:02.342Z,18.26
2022-08-27T09:22:48.168Z,18.29
2022-08-27T09:25:26.509Z,18.33
2022-08-27T09:27:59.901Z,18.62
2022-08-27T09:30:33.411Z,18.64
2022-08-27T09:33:05.870Z,18.75
2022-08-27T09:35:42.955Z,18.65
2022-08-27T09:38:21.720Z,18.33
2022-08-27T09:40:54.439Z,18.32
2022-08-27T09:43:28.505Z,18.40
2022-08-27T09:46:01.634Z,18.23
2022-08-27T09:48:33.958Z,18.38
2022-08-27T09:51:10.506Z,18.35
2022-08-27T09:53:47.000Z,18.29
2022-08-27T09:56:31.010Z,18.52
2022-08-27T09:59:07.331Z,18.55
2022-08-27T10:01:39.710Z,18.27
2022-08-27T10:04:12.837Z,18.23
2022-08-27T10:06:49.972Z,18.24
2022-08-27T10:09:26.305Z,18.38
2022-08-27T10:12:06.718Z,18.45
2022-08-27T10:14:41.462Z,18.43
2022-08-27T10:17:19.030Z,18.24
2022-08-27T10:20:00.864Z,18.66
2022-08-27T10:22:48.540Z,18.71
2022-08-27T10:25:27.248Z,18.45
2022-08-27T10:28:07.298Z,18.65
2022-08-27T10:30:53.341Z,18.64
2022-08-27T10:33:31.362Z,18.37
2022-08-27T10:36:10.617Z,18.50
2022-08-27T10:38:44.847Z,18.75
2022-08-27T10:41:18.659Z,18.79
2022-08-27T10:44:12.440Z,18.81
2022-08-27T10:47:04.855Z,18.73
2022-08-27T10:49:46.106Z,18.95
2022-08-27T10:52:23.183Z,18.50
2022-08-27T10:55:00.326Z,18.79
2022-08-27T10:57:56.404Z,18.91
2022-08-27T11:00:36.852Z,19.12
2022-08-27T11:03:13.789Z,19.09
2022-08-27T11:05:46.760Z,19.25
2022-08-27T11:08:22.851Z,19.44
2022-08-27T11:10:56.775Z,19.30
2022-08-27T11:13:33.643Z,19.34
2022-08-27T11:16:12.614Z,19.16
2022-08-27T11:18:48.567Z,19.30
2022-08-27T11:21:25.456Z,19.08
2022-08-27T11:24:00.603Z,19.31
2022-08-27T11:26:31.872Z,19.33
2022-08-27T11:29:07.959Z,18.89
2022-08-27T11:31:49.126Z,19.31
2022-08-27T11:34:26.665Z,19.39
2022-08-27T11:37:17.737Z,19.22
2022-08-27T11:40:07.681Z,18.81
2022-08-27T11:42:41.218Z,19.33
2022-08-27T11:45:18.089Z,19.68
2022-08-27T11:47:56.312Z,19.81
2022-08-27T11:50:27.761Z,19.61
2022-08-27T11:53:01.665Z,20.06
2022-08-27T11:55:36.641Z,20.67
2022-08-27T11:58:12.046Z,19.94
2022-08-27T12:00:44.445Z,20.11
2022-08-27T12:03:31.474Z,20.11
2022-08-27T12:06:18.792Z,20.44
2022-08-27T12:08:48.346Z,20.96
2022-08-27T12:11:31.924Z,20.68
2022-08-27T12:14:14.344Z,21.17
2022-08-27T12:16:50.541Z,21.24
2022-08-27T12:19:30.953Z,21.05
2022-08-27T12:22:16.407Z,21.04
2022-08-27T12:24:52.992Z,21.51
2022-08-27T12:27:35.459Z,21.23
2022-08-27T12:30:21.118Z,21.78
2022-08-27T12:32:52.566Z,21.56
2022-08-27T12:35:29.134Z,22.05
2022-08-27T12:38:12.838Z,21.97
2022-08-27T12:40:47.377Z,22.21
2022-08-27T12:43:20.932Z,22.41
2022-08-27T12:45:52.564Z,22.62
2022-08-27T12:48:25.457Z,22.98
2022-08-27T12:50:59.118Z,23.28
2022-08-27T12:53:45.254Z,23.33
2022-08-27T12:56:43.915Z,23.91
2022-08-27T12:59:35.782Z,24.01
2022-08-27T13:02:18.591Z,23.90
2022-08-27T13:04:50.294Z,24.20
2022-08-27T13:07:37.814Z,22.91
2022-08-27T13:10:14.938Z,22.68
2022-08-27T13:12:47.175Z,24.12
2022-08-27T13:15:21.846Z,24.28
2022-08-27T13:17:52.876Z,23.79
2022-08-27T13:20:26.455Z,23.39
2022-08-27T13:22:58.455Z,23.52
2022-08-27T13:25:30.955Z,24.88
2022-08-27T13:28:07.841Z,24.37
2022-08-27T13:30:39.174Z,25.06
2022-08-27T13:33:11.881Z,23.69
2022-08-27T13:35:43.706Z,23.74
2022-08-27T13:38:17.368Z,24.99
2022-08-27T13:40:59.408Z,25.11
2022-08-27T13:43:34.088Z,24.74
2022-08-27T13:46:08.335Z,25.54
2022-08-27T13:48:42.303Z,25.92
2022-08-27T13:51:14.186Z,25.94
2022-08-27T13:54:05.797Z,26.30
2022-08-27T13:56:39.163Z,26.34
2022-08-27T13:59:14.535Z,26.06
2022-08-27T14:01:54.758Z,25.43
2022-08-27T14:04:26.617Z,24.75
2022-08-27T14:06:56.139Z,25.18
2022-08-27T14:09:29.939Z,25.48
2022-08-27T14:12:04.716Z,25.85
2022-08-27T14:14:41.377Z,25.19
2022-08-27T14:17:29.751Z,25.98
2022-08-27T14:20:01.876Z,26.27
2022-08-27T14:22:31.075Z,25.23
2022-08-27T14:25:01.983Z,25.22
2022-08-27T14:27:31.824Z,25.45
2022-08-27T14:30:00.901Z,24.92
2022-08-27T14:32:30.526Z,25.21
2022-08-27T14:34:59.666Z,25.95
2022-08-27T14:37:29.713Z,24.68
2022-08-27T14:40:00.604Z,24.50
2022-08-27T14:42:29.772Z,25.24
2022-08-27T14:44:58.851Z,26.24
2022-08-27T14:47:33.568Z,26.17
2022-08-27T14:50:02.951Z,25.58
2022-08-27T14:52:32.040Z,24.39
2022-08-27T14:55:02.491Z,26.01
2022-08-27T14:57:31.699Z,25.01
2022-08-27T15:00:00.770Z,25.33
2022-08-27T15:02:30.022Z,25.78
2022-08-27T15:05:00.154Z,25.51
2022-08-27T15:07:29.478Z,25.85
2022-08-27T15:10:00.571Z,25.89
2022-08-27T15:12:31.330Z,26.08
2022-08-27T15:15:00.559Z,24.38
2022-08-27T15:17:34.577Z,24.85
2022-08-27T15:20:06.529Z,25.16
2022-08-27T15:22:37.756Z,25.37
2022-08-27T15:25:13.483Z,25.33
2022-08-27T15:27:44.702Z,25.38
2022-08-27T15:30:16.713Z,25.70
2022-08-27T15:32:48.956Z,25.34
2022-08-27T15:35:19.855Z,24.96
2022-08-27T15:37:49.104Z,25.33
2022-08-27T15:40:19.775Z,25.20
2022-08-27T15:42:54.410Z,25.09
2022-08-27T15:45:25.696Z,24.54
2022-08-27T15:47:57.221Z,24.01
2022-08-27T15:50:28.252Z,24.94
2022-08-27T15:53:02.455Z,24.92
2022-08-27T15:55:34.279Z,24.93
2022-08-27T15:58:05.431Z,24.64
2022-08-27T16:00:36.440Z,23.95
2022-08-27T16:03:09.367Z,24.22
2022-08-27T16:05:40.974Z,24.30
2022-08-27T16:08:11.903Z,24.50
2022-08-27T16:10:41.399Z,24.59
2022-08-27T16:13:11.927Z,24.54
2022-08-27T16:15:42.198Z,24.35
2022-08-27T16:18:12.257Z,24.16
2022-08-27T16:20:42.375Z,23.84
2022-08-27T16:23:13.770Z,23.74
2022-08-27T16:25:43.021Z,23.32
2022-08-27T16:28:13.440Z,22.80
2022-08-27T16:30:43.466Z,22.48
2022-08-27T16:33:14.172Z,22.45
2022-08-27T16:35:44.120Z,22.30
2022-08-27T16:38:13.720Z,22.16
2022-08-27T16:40:45.565Z,22.13
2022-08-27T16:43:20.977Z,22.13
2022-08-27T16:45:50.533Z,22.43
2022-08-27T16:48:37.621Z,22.06
2022-08-27T16:51:10.134Z,21.88
2022-08-27T16:53:42.129Z,21.87
2022-08-27T16:56:11.205Z,21.58
2022-08-27T16:58:45.922Z,21.68
2022-08-27T17:01:17.900Z,21.81
2022-08-27T17:04:08.085Z,21.57
2022-08-27T17:06:39.633Z,21.52
2022-08-27T17:09:10.320Z,21.47
2022-08-27T17:11:42.807Z,21.37
2022-08-27T17:14:13.453Z,21.26
2022-08-27T17:16:43.240Z,21.03
2022-08-27T17:19:16.869Z,21.05
2022-08-27T17:21:46.802Z,21.13
2022-08-27T17:24:16.234Z,20.98
2022-08-27T17:26:45.789Z,20.99
2022-08-27T17:29:16.096Z,20.87
2022-08-27T17:31:45.141Z,20.86
2022-08-27T17:34:18.311Z,20.91
2022-08-27T17:36:47.381Z,21.00
2022-08-27T17:39:16.993Z,20.98
2022-08-27T17:41:48.183Z,20.88
2022-08-27T17:44:24.357Z,20.90
2022-08-27T17:46:58.266Z,20.84
2022-08-27T17:49:28.025Z,20.74
2022-08-27T17:51:59.624Z,20.45
2022-08-27T17:54:35.183Z,20.15
2022-08-27T17:57:11.091Z,20.01
2022-08-27T17:59:41.417Z,20.01
2022-08-27T18:02:13.987Z,19.88
2022-08-27T18:04:43.362Z,19.77
2022-08-27T18:07:12.596Z,19.59
2022-08-27T18:09:41.969Z,19.49
2022-08-27T18:12:12.967Z,19.46
2022-08-27T18:14:43.836Z,19.35
2022-08-27T18:17:13.852Z,19.20
2022-08-27T18:19:45.818Z,19.23
2022-08-27T18:22:16.074Z,19.12
2022-08-27T18:24:45.150Z,18.98
2022-08-27T18:27:18.099Z,18.88
2022-08-27T18:29:49.922Z,18.81
2022-08-27T18:32:22.753Z,18.80
2022-08-27T18:34:52.205Z,18.69
2022-08-27T18:37:23.974Z,18.58
2022-08-27T18:39:53.129Z,18.54
2022-08-27T18:42:22.422Z,18.44
2022-08-27T18:44:52.880Z,18.32
2022-08-27T18:47:21.950Z,18.26
2022-08-27T18:49:51.252Z,18.25
2022-08-27T18:52:23.279Z,18.01
2022-08-27T18:54:52.427Z,18.04
2022-08-27T18:57:21.486Z,18.01
2022-08-27T18:59:52.055Z,17.90
2022-08-27T19:02:22.556Z,17.85
2022-08-27T19:04:51.988Z,17.75
2022-08-27T19:07:21.277Z,17.67
2022-08-27T19:09:50.471Z,17.63
2022-08-27T19:12:19.849Z,17.52
2022-08-27T19:14:49.313Z,17.53
2022-08-27T19:17:26.215Z,17.28
2022-08-27T19:19:55.849Z,17.23
2022-08-27T19:22:25.585Z,17.21
2022-08-27T19:24:55.481Z,17.20
2022-08-27T19:27:26.310Z,17.08
2022-08-27T19:29:56.038Z,17.14
2022-08-27T19:32:26.676Z,17.08
2022-08-27T19:34:55.775Z,17.01
2022-08-27T19:37:27.465Z,16.81
2022-08-27T19:39:57.477Z,16.77
2022-08-27T19:42:26.618Z,16.82
2022-08-27T19:44:56.743Z,16.70
2022-08-27T19:47:27.803Z,16.70
2022-08-27T19:49:57.327Z,16.67
2022-08-27T19:52:26.620Z,16.68
2022-08-27T19:55:14.113Z,16.62
2022-08-27T19:57:44.454Z,16.61
2022-08-27T20:00:16.248Z,16.56
2022-08-27T20:02:47.113Z,16.41
2022-08-27T20:05:21.381Z,16.27
2022-08-27T20:07:52.900Z,16.24
2022-08-27T20:10:28.601Z,16.28
2022-08-27T20:13:06.394Z,16.18
2022-08-27T20:15:36.454Z,16.19
2022-08-27T20:18:09.087Z,16.08
2022-08-27T20:20:38.400Z,16.03
2022-08-27T20:23:09.031Z,16.01
2022-08-27T20:25:38.367Z,15.90
2022-08-27T20:28:35.424Z,15.89
2022-08-27T20:30:57.989Z,15.84
2022-08-27T20:33:28.456Z,15.76
2022-08-27T20:35:59.694Z,15.66
2022-08-27T20:38:28.817Z,15.75
2022-08-27T20:40:57.894Z,15.71
2022-08-27T20:43:26.952Z,15.75
2022-08-27T20:45:56.107Z,15.65
2022-08-27T20:48:25.149Z,15.64
2022-08-27T20:50:55.820Z,15.57
2022-08-27T20:53:25.909Z,15.57
2022-08-27T20:55:56.593Z,15.52
2022-08-27T20:58:44.008Z,15.43
2022-08-27T21:01:13.504Z,15.49
2022-08-27T21:03:42.732Z,15.34
2022-08-27T21:06:13.444Z,15.41
2022-08-27T21:08:42.710Z,15.24
2022-08-27T21:11:14.753Z,15.21
2022-08-27T21:13:55.725Z,15.18
2022-08-27T21:16:26.724Z,15.09
2022-08-27T21:18:56.177Z,15.01
2022-08-27T21:21:26.821Z,15.15
2022-08-27T21:23:55.867Z,15.02
2022-08-27T21:26:24.974Z,15.05
2022-08-27T21:28:55.739Z,15.08
2022-08-27T21:31:25.816Z,15.03
2022-08-27T21:33:54.959Z,14.98
2022-08-27T21:36:25.415Z,14.98
2022-08-27T21:38:54.732Z,14.98
2022-08-27T21:41:24.718Z,14.93
2022-08-27T21:43:53.933Z,14.85
2022-08-27T21:46:23.215Z,14.92
2022-08-27T21:48:58.952Z,14.79
2022-08-27T21:51:31.774Z,14.76
2022-08-27T21:54:01.881Z,14.75
2022-08-27T21:56:32.272Z,14.58
2022-08-27T21:59:01.527Z,14.75
2022-08-27T22:01:31.171Z,14.61
2022-08-27T22:04:00.467Z,14.56
2022-08-27T22:06:30.966Z,14.60
2022-08-27T22:09:00.121Z,14.58
2022-08-27T22:11:30.690Z,14.52
2022-08-27T22:13:59.944Z,14.54
2022-08-27T22:16:29.611Z,14.56
2022-08-27T22:18:58.870Z,14.40
2022-08-27T22:21:28.033Z,14.37
2022-08-27T22:23:58.620Z,14.34
2022-08-27T22:26:27.827Z,14.32
2022-08-27T22:28:56.949Z,14.24
2022-08-27T22:31:26.135Z,14.26
2022-08-27T22:33:55.525Z,14.16
2022-08-27T22:36:24.551Z,14.12
2022-08-27T22:38:53.691Z,14.11
2022-08-27T22:41:33.922Z,14.10
2022-08-27T22:44:03.975Z,14.13
2022-08-27T22:46:33.210Z,14.07
2022-08-27T22:49:02.486Z,14.10
2022-08-27T22:51:31.556Z,14.02
2022-08-27T22:54:00.668Z,14.07
2022-08-27T22:56:29.818Z,13.98
2022-08-27T22:59:00.382Z,14.07
2022-08-27T23:01:29.908Z,14.03
2022-08-27T23:03:58.978Z,14.05
2022-08-27T23:06:28.248Z,14.04
2022-08-27T23:08:57.328Z,13.99
2022-08-27T23:11:26.687Z,14.07
2022-08-27T23:13:55.759Z,13.95
2022-08-27T23:16:26.499Z,13.90
2022-08-27T23:18:55.885Z,13.85
2022-08-27T23:21:24.860Z,13.81
2022-08-27T23:23:53.892Z,13.75
2022-08-27T23:26:40.672Z,13.73
2022-08-27T23:29:11.194Z,13.79
2022-08-27T23:31:41.763Z,13.78
2022-08-27T23:34:10.861Z,13.75
2022-08-27T23:36:39.936Z,13.77
2022-08-27T23:39:10.653Z,13.70
2022-08-27T23:41:39.900Z,13.68
2022-08-27T23:44:09.737Z,13.69
2022-08-27T23:46:40.835Z,13.69
2022-08-27T23:49:10.230Z,13.61
2022-08-27T23:51:40.075Z,13.56
2022-08-27T23:54:09.242Z,13.61
2022-08-27T23:56:38.240Z,13.59
2022-08-27T23:59:07.317Z,13.65
